Irrigon, Oregon
Current Conditions -  °F | °C
As of 1:53 AM on Thursday 23 Oct 2014 (Local Time) from KHRI Reporting Station
Light Rain Light Rain  
Wind Chill: 57°   Ceiling: 7000
Heat Index: 57°   Visibility: 10mi
Dew Point: 52°   Wind: 5mph
Humidity: 83%   Direction: 230°SW
Pressure: 29.79"   Gusts: NA
Location:  45.9°N, 119.49°W
Report Text: KHRI 230853Z AUTO 23004KT 10SM -RA OVC070 14/11 A2979 RMK AO2 RAB18 SLP085 P0000 60000 T01390111 53029
Loading
Personal Weather Stations






























Interactive Weather Map
Tropical Storm Tracking
New forecast layout! Learn more

10-Day Weather Forecast

Advertisements
Track Severe Weather on mobile